Haastrecht, Netherlands
Current Conditions -  °F | °C
As of 3:25 AM on Wednesday 22 Oct 2014 (Local Time) from EHRD Reporting Station
Moderate Rain Moderate Rain  
Wind Chill: 41°   Ceiling: 4000
Heat Index: 48°   Visibility: 6mi
Dew Point: 39°   Wind: 23mph
Humidity: 71%   Direction: 300°WNW
Pressure: 29.94"   Gusts: 36mph
Location:  52°N, 4.78°E
Report Text: EHRD 220125Z AUTO 30020G31KT 260V360 9999 RA FEW020CB SCT035BKN040 09/04 Q1014 TEMPO 4000 SHRA
Loading
Personal Weather Stations






























Interactive Weather Map
Tropical Storm Tracking
New forecast layout! Learn more

10-Day Weather Forecast

Advertisements
Track Severe Weather on mobile